Time;durP1;ratioP1;P1;durP2;ratioP2;P2;SDS_P1;SDS_P2;PMS_P1;PMS_P2;Temp;Humidity;BMP_temperature;BMP_pressure;BME280_temperature;BME280_humidity;BME280_pressure;Samples;Min_cycle;Max_cycle;Signal;HPM_P1;HPM_P2
2023/06/07 00:01:08;;;;;;;;;;;;;;;24.31;nan;101940.66;4984299;28;19922;-84
2023/06/07 00:03:33;;;;;;;;;;;;;;;24.26;nan;101943.50;4986835;28;19926;-84
2023/06/07 00:06:00;;;;;;;;;;;;;;;24.23;nan;101938.63;4988760;28;20270;-84
2023/06/07 00:08:27;;;;;;;;;;;;;;;24.23;nan;101938.63;4983937;28;19965;-85
2023/06/07 00:10:52;;;;;;;;;;;;;;;24.21;nan;101935.38;4980833;28;19980;-84
2023/06/07 00:13:17;;;;;;;;;;;;;;;24.18;nan;101938.75;4986229;28;19922;-83
2023/06/07 00:15:43;;;;;;;;;;;;;;;24.14;nan;101943.25;4981395;28;20020;-84
2023/06/07 00:18:10;;;;;;;;;;;;;;;24.11;nan;101932.91;4990257;28;19921;-84
2023/06/07 00:20:35;;;;;;;;;;;;;;;23.95;nan;101935.19;4985830;28;19949;-84
2023/06/07 00:23:01;;;;;;;;;;;;;;;23.78;nan;101933.13;4987691;28;19956;-85
2023/06/07 00:25:27;;;;;;;;;;;;;;;23.69;nan;101928.69;4982074;28;20405;-85
2023/06/07 00:27:52;;;;;;;;;;;;;;;23.60;nan;101936.00;4988628;28;19924;-84
2023/06/07 00:30:18;;;;;;;;;;;;;;;23.56;nan;101935.78;4985150;28;19945;-84
2023/06/07 00:32:44;;;;;;;;;;;;;;;23.58;nan;101935.50;4987881;28;19983;-84
2023/06/07 00:35:11;;;;;;;;;;;;;;;23.61;nan;101937.63;4988695;28;19917;-84
2023/06/07 00:37:36;;;;;;;;;;;;;;;23.64;nan;101937.81;4983358;28;19922;-83
2023/06/07 00:40:01;;;;;;;;;;;;;;;23.64;nan;101935.09;4986372;28;20297;-84
2023/06/07 00:42:27;;;;;;;;;;;;;;;23.62;nan;101936.50;4986507;28;19976;-84
2023/06/07 00:44:52;;;;;;;;;;;;;;;23.60;nan;101938.75;4983547;28;19922;-84
2023/06/07 00:47:17;;;;;;;;;;;;;;;23.54;nan;101940.75;4985727;28;20504;-84
2023/06/07 00:49:44;;;;;;;;;;;;;;;23.47;nan;101943.91;4986603;28;20317;-84
2023/06/07 00:52:10;;;;;;;;;;;;;;;23.41;nan;101941.59;4983880;28;19918;-84
2023/06/07 00:54:35;;;;;;;;;;;;;;;23.35;nan;101940.09;4989031;28;20557;-84
2023/06/07 00:57:01;;;;;;;;;;;;;;;23.31;nan;101941.78;4988891;28;19940;-84
2023/06/07 00:59:27;;;;;;;;;;;;;;;23.30;nan;101943.72;4991374;28;20420;-84
2023/06/07 01:01:53;;;;;;;;;;;;;;;23.28;nan;101937.75;4982076;28;19918;-84
2023/06/07 01:04:21;;;;;;;;;;;;;;;23.26;nan;101936.44;4986940;28;20313;-83
2023/06/07 01:06:47;;;;;;;;;;;;;;;23.23;nan;101940.59;4983994;28;19932;-83
2023/06/07 01:09:13;;;;;;;;;;;;;;;23.21;nan;101938.16;4988819;28;19918;-84
2023/06/07 01:11:43;;;;;;;;;;;;;;;23.18;nan;101927.84;4984008;28;19947;-84
2023/06/07 01:14:12;;;;;;;;;;;;;;;23.13;nan;101933.38;4986010;28;19928;-84
2023/06/07 01:16:39;;;;;;;;;;;;;;;23.10;nan;101936.72;4984274;28;19925;-84
2023/06/07 01:19:05;;;;;;;;;;;;;;;23.06;nan;101935.72;4986456;28;19926;-84
2023/06/07 01:21:32;;;;;;;;;;;;;;;23.01;nan;101935.84;4987154;28;19933;-84
2023/06/07 01:23:59;;;;;;;;;;;;;;;22.97;nan;101933.97;4983895;28;20544;-84
2023/06/07 01:26:26;;;;;;;;;;;;;;;22.88;nan;101922.97;5003684;28;19925;-84
2023/06/07 01:28:52;;;;;;;;;;;;;;;22.81;nan;101923.34;4984095;28;20692;-84
2023/06/07 01:31:18;;;;;;;;;;;;;;;22.76;nan;101923.41;4985783;28;20009;-84
2023/06/07 01:33:43;;;;;;;;;;;;;;;22.75;nan;101923.72;4988205;28;20316;-84
2023/06/07 01:36:10;;;;;;;;;;;;;;;22.70;nan;101938.28;4986353;28;20416;-84
2023/06/07 01:38:37;;;;;;;;;;;;;;;22.66;nan;101931.00;4986823;28;20405;-84
2023/06/07 01:41:02;;;;;;;;;;;;;;;22.63;nan;101926.16;4986499;28;19941;-83
2023/06/07 01:43:28;;;;;;;;;;;;;;;22.59;nan;101924.00;4986847;28;20393;-84
2023/06/07 01:45:54;;;;;;;;;;;;;;;22.56;nan;101921.06;4983281;28;19922;-83
2023/06/07 01:48:20;;;;;;;;;;;;;;;22.52;nan;101918.13;4980072;28;19921;-84
2023/06/07 01:50:45;;;;;;;;;;;;;;;22.48;nan;101916.28;4984422;28;19929;-84
2023/06/07 01:53:10;;;;;;;;;;;;;;;22.44;nan;101912.50;4982827;28;19922;-83
2023/06/07 01:55:36;;;;;;;;;;;;;;;22.41;nan;101911.19;4980612;28;20727;-83
2023/06/07 01:58:16;;;;;;;;;;;;;;;22.37;nan;101907.47;4987070;28;19918;-83
2023/06/07 02:00:42;;;;;;;;;;;;;;;;;;4983150;28;20382;-84
2023/06/07 02:03:13;;;;;;;;;;;;;;;22.30;nan;101915.22;4983315;28;19922;-83
2023/06/07 02:05:41;;;;;;;;;;;;;;;22.23;nan;101912.06;4983042;28;19918;-84
2023/06/07 02:08:14;;;;;;;;;;;;;;;22.12;nan;101916.09;4983223;28;19926;-84
2023/06/07 02:10:41;;;;;;;;;;;;;;;22.02;nan;101917.81;4986028;28;20025;-83
2023/06/07 02:13:07;;;;;;;;;;;;;;;21.95;nan;101913.84;4987408;28;20008;-84
2023/06/07 02:15:32;;;;;;;;;;;;;;;21.85;nan;101909.34;4982039;28;20032;-83
2023/06/07 02:17:58;;;;;;;;;;;;;;;21.78;nan;101917.09;4988644;28;19925;-84
2023/06/07 02:20:25;;;;;;;;;;;;;;;21.71;nan;101913.91;4988696;28;19946;-84
2023/06/07 02:22:50;;;;;;;;;;;;;;;21.64;nan;101916.22;4988041;28;19922;-84
2023/06/07 02:25:15;;;;;;;;;;;;;;;21.56;nan;101909.50;4990563;28;19918;-83
2023/06/07 02:27:41;;;;;;;;;;;;;;;21.52;nan;101918.53;4986465;28;19929;-83
2023/06/07 02:30:07;;;;;;;;;;;;;;;21.48;nan;101917.50;4988746;28;19918;-84
2023/06/07 02:32:33;;;;;;;;;;;;;;;21.48;nan;101920.25;4988937;28;20393;-83
2023/06/07 02:34:59;;;;;;;;;;;;;;;21.49;nan;101924.59;4990004;28;19972;-84
2023/06/07 02:37:24;;;;;;;;;;;;;;;21.46;nan;101920.53;4988810;28;19918;-84
2023/06/07 02:39:49;;;;;;;;;;;;;;;21.39;nan;101917.38;4985143;28;19925;-83
2023/06/07 02:42:15;;;;;;;;;;;;;;;21.33;nan;101916.59;4989372;28;19925;-84
2023/06/07 02:44:40;;;;;;;;;;;;;;;21.31;nan;101913.38;4989730;28;20012;-84
2023/06/07 02:47:05;;;;;;;;;;;;;;;21.34;nan;101918.22;4985016;28;19961;-83
2023/06/07 02:49:31;;;;;;;;;;;;;;;21.35;nan;101917.13;4984733;28;19957;-84
2023/06/07 02:51:56;;;;;;;;;;;;;;;21.34;nan;101920.13;4988691;28;19929;-84
2023/06/07 02:54:22;;;;;;;;;;;;;;;21.29;nan;101915.56;4984968;28;19926;-84
2023/06/07 02:56:47;;;;;;;;;;;;;;;21.27;nan;101912.34;4987357;28;20004;-84
2023/06/07 02:59:12;;;;;;;;;;;;;;;21.26;nan;101912.63;4984700;28;19934;-84
2023/06/07 03:01:41;;;;;;;;;;;;;;;21.23;nan;101915.91;4986166;28;21795;-84
2023/06/07 03:04:06;;;;;;;;;;;;;;;21.18;nan;101916.75;4984158;28;20374;-83
2023/06/07 03:06:32;;;;;;;;;;;;;;;21.12;nan;101916.00;4986126;28;19945;-84
2023/06/07 03:08:57;;;;;;;;;;;;;;;21.06;nan;101917.19;4986476;28;19922;-84
2023/06/07 03:11:23;;;;;;;;;;;;;;;21.01;nan;101916.44;4989070;28;19941;-83
2023/06/07 03:13:48;;;;;;;;;;;;;;;20.97;nan;101918.91;4985628;28;19918;-83
2023/06/07 03:16:13;;;;;;;;;;;;;;;20.93;nan;101911.63;4987035;28;19926;-83
2023/06/07 03:18:39;;;;;;;;;;;;;;;20.94;nan;101918.69;4987135;28;19932;-82
2023/06/07 03:21:04;;;;;;;;;;;;;;;20.94;nan;101918.69;4986851;28;20365;-84
2023/06/07 03:23:30;;;;;;;;;;;;;;;20.93;nan;101927.97;4987332;28;19979;-83
2023/06/07 03:25:57;;;;;;;;;;;;;;;20.92;nan;101931.78;4986984;28;20354;-84
2023/06/07 03:28:22;;;;;;;;;;;;;;;20.93;nan;101933.41;4987953;28;20601;-84
2023/06/07 03:30:48;;;;;;;;;;;;;;;20.95;nan;101936.66;4982583;28;19921;-84
2023/06/07 03:33:13;;;;;;;;;;;;;;;20.96;nan;101936.34;4986997;28;20417;-83
2023/06/07 03:35:39;;;;;;;;;;;;;;;20.96;nan;101938.28;4987903;28;19928;-83
2023/06/07 03:38:05;;;;;;;;;;;;;;;20.94;nan;101937.75;4987976;28;19980;-83
2023/06/07 03:40:30;;;;;;;;;;;;;;;20.95;nan;101944.81;4987211;28;20301;-84
2023/06/07 03:42:55;;;;;;;;;;;;;;;20.96;nan;101943.72;4985802;28;20436;-84
2023/06/07 03:45:21;;;;;;;;;;;;;;;20.97;nan;101942.63;4987436;28;19922;-84
2023/06/07 03:47:46;;;;;;;;;;;;;;;21.01;nan;101930.06;4981928;28;19940;-83
2023/06/07 03:50:11;;;;;;;;;;;;;;;21.08;nan;101931.34;4987216;28;19965;-83
2023/06/07 03:52:37;;;;;;;;;;;;;;;21.14;nan;101932.06;4986050;28;19964;-84
2023/06/07 03:55:02;;;;;;;;;;;;;;;21.22;nan;101930.63;4985362;28;20211;-84
2023/06/07 03:57:28;;;;;;;;;;;;;;;21.28;nan;101929.50;4985249;28;19969;-83
2023/06/07 03:59:53;;;;;;;;;;;;;;;21.41;nan;101935.06;4986426;28;19930;-84
2023/06/07 04:02:18;;;;;;;;;;;;;;;21.51;nan;101936.00;4989383;28;19925;-84
2023/06/07 04:04:44;;;;;;;;;;;;;;;21.59;nan;101932.66;4983865;28;19926;-84
2023/06/07 04:07:10;;;;;;;;;;;;;;;21.68;nan;101939.06;4985268;28;19918;-84
2023/06/07 04:09:35;;;;;;;;;;;;;;;21.79;nan;101942.47;4987295;28;19925;-83
2023/06/07 04:12:01;;;;;;;;;;;;;;;21.92;nan;101939.81;4986172;28;19983;-84
2023/06/07 04:14:27;;;;;;;;;;;;;;;22.06;nan;101936.34;4986177;28;20012;-84
2023/06/07 04:16:52;;;;;;;;;;;;;;;22.18;nan;101931.25;4982593;28;20029;-84
2023/06/07 04:19:17;;;;;;;;;;;;;;;22.28;nan;101936.56;4982518;28;19932;-83
2023/06/07 04:21:43;;;;;;;;;;;;;;;22.39;nan;101938.00;4987951;28;19929;-84
2023/06/07 04:24:08;;;;;;;;;;;;;;;22.50;nan;101933.19;4987404;28;19921;-84
2023/06/07 04:26:34;;;;;;;;;;;;;;;22.61;nan;101931.88;4985192;28;19921;-85
2023/06/07 04:29:00;;;;;;;;;;;;;;;22.71;nan;101928.97;4981292;28;19928;-83
2023/06/07 04:31:33;;;;;;;;;;;;;;;22.81;nan;101928.00;4983682;28;19925;-85
2023/06/07 04:34:01;;;;;;;;;;;;;;;22.92;nan;101932.97;4985198;28;19981;-84
2023/06/07 04:36:28;;;;;;;;;;;;;;;23.02;nan;101931.19;4979093;28;19918;-85
2023/06/07 04:38:55;;;;;;;;;;;;;;;23.10;nan;101928.53;4981328;28;20607;-83
2023/06/07 04:41:25;;;;;;;;;;;;;;;23.20;nan;101925.59;4983156;28;19917;-84
2023/06/07 04:43:51;;;;;;;;;;;;;;;23.37;nan;101924.16;4984977;28;19925;-84
2023/06/07 04:46:18;;;;;;;;;;;;;;;23.51;nan;101924.94;4987929;28;20508;-85
2023/06/07 04:48:43;;;;;;;;;;;;;;;23.66;nan;101932.84;4985152;28;19932;-84
2023/06/07 04:51:09;;;;;;;;;;;;;;;23.82;nan;101933.31;4984694;28;19914;-84
2023/06/07 04:53:36;;;;;;;;;;;;;;;23.96;nan;101931.34;4983986;28;20020;-84
2023/06/07 04:56:02;;;;;;;;;;;;;;;24.09;nan;101935.97;4983959;28;20521;-84
2023/06/07 04:58:27;;;;;;;;;;;;;;;24.23;nan;101927.66;4984326;28;19932;-84
2023/06/07 05:00:53;;;;;;;;;;;;;;;24.38;nan;101929.25;4989040;28;19929;-84
2023/06/07 05:03:24;;;;;;;;;;;;;;;24.49;nan;101925.13;4986404;28;19926;-84
2023/06/07 05:05:50;;;;;;;;;;;;;;;24.59;nan;101941.28;4986100;28;19996;-85
2023/06/07 05:08:16;;;;;;;;;;;;;;;24.70;nan;101939.13;4983499;28;20356;-84
2023/06/07 05:10:41;;;;;;;;;;;;;;;24.80;nan;101941.59;4984299;28;20366;-84
2023/06/07 05:13:06;;;;;;;;;;;;;;;24.88;nan;101940.81;4986075;28;19925;-85
2023/06/07 05:15:32;;;;;;;;;;;;;;;24.97;nan;101943.59;4982101;28;19920;-84
2023/06/07 05:17:58;;;;;;;;;;;;;;;25.07;nan;101953.50;4981415;28;19929;-84
2023/06/07 05:20:24;;;;;;;;;;;;;;;25.18;nan;101946.59;4980220;28;19922;-84
2023/06/07 05:22:50;;;;;;;;;;;;;;;25.32;nan;101949.25;4988265;28;19918;-84
2023/06/07 05:25:16;;;;;;;;;;;;;;;25.47;nan;101941.34;4987956;28;19924;-82
2023/06/07 05:27:42;;;;;;;;;;;;;;;25.58;nan;101942.66;4990569;28;19928;-82
2023/06/07 05:30:07;;;;;;;;;;;;;;;25.67;nan;101941.84;4984345;28;19925;-83
2023/06/07 05:32:33;;;;;;;;;;;;;;;25.74;nan;101947.72;4987044;28;20386;-81
2023/06/07 05:34:59;;;;;;;;;;;;;;;25.82;nan;101946.91;4982961;28;19988;-82
2023/06/07 05:37:25;;;;;;;;;;;;;;;25.93;nan;101950.97;4988057;28;20024;-81
2023/06/07 05:39:51;;;;;;;;;;;;;;;26.05;nan;101947.56;4911667;28;2017529;-83
2023/06/07 05:42:16;;;;;;;;;;;;;;;26.18;nan;101947.38;4987639;28;19925;-81
2023/06/07 05:44:43;;;;;;;;;;;;;;;26.35;nan;101943.03;4988752;28;19926;-83
2023/06/07 05:47:09;;;;;;;;;;;;;;;26.51;nan;101946.88;4984215;28;19921;-85
2023/06/07 05:49:34;;;;;;;;;;;;;;;26.66;nan;101948.28;4983815;28;20009;-81
2023/06/07 05:52:00;;;;;;;;;;;;;;;26.79;nan;101955.53;4988550;28;20381;-82
2023/06/07 05:54:26;;;;;;;;;;;;;;;26.88;nan;101950.81;4986702;28;19918;-82
2023/06/07 05:56:51;;;;;;;;;;;;;;;27.00;nan;101947.41;4983587;28;19957;-81
2023/06/07 05:59:17;;;;;;;;;;;;;;;27.13;nan;101940.88;4988402;28;19983;-82
2023/06/07 06:01:44;;;;;;;;;;;;;;;27.27;nan;101946.13;4985579;28;20274;-84
2023/06/07 06:04:09;;;;;;;;;;;;;;;27.39;nan;101940.72;4981848;28;19921;-84
2023/06/07 06:06:36;;;;;;;;;;;;;;;27.53;nan;101944.03;4984326;28;19940;-82
2023/06/07 06:09:01;;;;;;;;;;;;;;;27.69;nan;101949.78;4984686;28;20366;-81
2023/06/07 06:11:27;;;;;;;;;;;;;;;27.85;nan;101945.28;4984669;28;20001;-81
2023/06/07 06:13:52;;;;;;;;;;;;;;;27.95;nan;101944.84;4988135;28;19972;-82
2023/06/07 06:16:17;;;;;;;;;;;;;;;28.04;nan;101953.06;4982342;28;19944;-81
2023/06/07 06:18:43;;;;;;;;;;;;;;;28.06;nan;101956.28;4985644;28;19972;-81
2023/06/07 06:21:08;;;;;;;;;;;;;;;28.07;nan;101955.13;4987922;28;19953;-81
2023/06/07 06:23:34;;;;;;;;;;;;;;;28.14;nan;101962.84;4984655;28;20386;-81
2023/06/07 06:26:00;;;;;;;;;;;;;;;28.29;nan;101959.50;4984733;28;19917;-81
2023/06/07 06:28:25;;;;;;;;;;;;;;;28.44;nan;101961.59;4985330;28;20416;-81
2023/06/07 06:30:50;;;;;;;;;;;;;;;28.60;nan;101956.25;4988262;28;19977;-86
2023/06/07 06:33:16;;;;;;;;;;;;;;;28.77;nan;101958.00;4984830;28;19925;-85
2023/06/07 06:35:41;;;;;;;;;;;;;;;28.89;nan;101960.78;4987807;28;19926;-85
2023/06/07 06:38:06;;;;;;;;;;;;;;;29.01;nan;101963.56;4984390;28;19929;-86
2023/06/07 06:40:32;;;;;;;;;;;;;;;29.12;nan;101966.69;4988210;28;19928;-82
2023/06/07 06:42:59;;;;;;;;;;;;;;;29.25;nan;101968.28;4984390;28;20013;-82
2023/06/07 06:45:25;;;;;;;;;;;;;;;29.39;nan;101965.97;4988048;28;20405;-83
2023/06/07 06:47:51;;;;;;;;;;;;;;;29.57;nan;101969.31;4983295;28;19917;-83
2023/06/07 06:50:16;;;;;;;;;;;;;;;29.71;nan;101958.69;4984671;28;19961;-85
2023/06/07 06:52:42;;;;;;;;;;;;;;;29.88;nan;101959.59;4988074;28;20870;-85
2023/06/07 06:55:07;;;;;;;;;;;;;;;29.98;nan;101961.84;4979352;28;19976;-82
2023/06/07 06:57:33;;;;;;;;;;;;;;;30.08;nan;101953.09;4986313;28;20289;-82
2023/06/07 06:59:59;;;;;;;;;;;;;;;30.16;nan;101954.88;4987092;28;19921;-85
2023/06/07 07:02:25;;;;;;;;;;;;;;;30.28;nan;101959.56;4995271;28;19922;-84
2023/06/07 07:04:50;;;;;;;;;;;;;;;30.34;nan;101961.72;4990666;28;19925;-84
2023/06/07 07:07:16;;;;;;;;;;;;;;;30.45;nan;101953.69;4991432;28;19922;-84
2023/06/07 07:09:41;;;;;;;;;;;;;;;30.58;nan;101954.44;4987899;28;20005;-82
2023/06/07 07:12:07;;;;;;;;;;;;;;;30.68;nan;101957.50;4990922;28;19928;-83
2023/06/07 07:14:32;;;;;;;;;;;;;;;30.82;nan;101961.78;4991481;28;20016;-83
2023/06/07 07:16:57;;;;;;;;;;;;;;;30.96;nan;101962.97;4990935;28;19918;-83
2023/06/07 07:19:23;;;;;;;;;;;;;;;31.09;nan;101963.66;4982422;28;19922;-82
2023/06/07 07:21:48;;;;;;;;;;;;;;;31.22;nan;101962.41;4986525;28;20428;-87
2023/06/07 07:24:13;;;;;;;;;;;;;;;31.37;nan;101960.78;4989002;28;19926;-82
2023/06/07 07:26:39;;;;;;;;;;;;;;;31.49;nan;101960.66;4986908;28;19918;-82
2023/06/07 07:29:05;;;;;;;;;;;;;;;31.58;nan;101952.94;4991179;28;20559;-86
2023/06/07 07:31:33;;;;;;;;;;;;;;;31.71;nan;101952.81;4988368;28;19917;-84
2023/06/07 07:33:58;;;;;;;;;;;;;;;31.83;nan;101955.50;4991492;28;19925;-82
2023/06/07 07:36:24;;;;;;;;;;;;;;;31.95;nan;101960.88;4985795;28;19922;-84
2023/06/07 07:38:49;;;;;;;;;;;;;;;32.08;nan;101962.34;4984123;28;19926;-82
2023/06/07 07:41:14;;;;;;;;;;;;;;;32.22;nan;101961.81;4985087;28;20013;-82
2023/06/07 07:43:40;;;;;;;;;;;;;;;32.35;nan;101954.16;4985468;28;19914;-85
2023/06/07 07:46:05;;;;;;;;;;;;;;;32.44;nan;101954.72;4987749;28;20646;-82
2023/06/07 07:48:31;;;;;;;;;;;;;;;32.55;nan;101957.69;4991090;28;19919;-85
2023/06/07 07:50:56;;;;;;;;;;;;;;;32.64;nan;101959.03;4990020;28;19913;-84
2023/06/07 07:53:21;;;;;;;;;;;;;;;32.73;nan;101958.81;4991200;28;19922;-86
2023/06/07 07:55:47;;;;;;;;;;;;;;;32.81;nan;101959.75;4983161;28;19914;-83
2023/06/07 07:58:12;;;;;;;;;;;;;;;32.88;nan;101957.09;4990631;28;19972;-84
2023/06/07 08:00:39;;;;;;;;;;;;;;;33.00;nan;101952.13;4983366;28;19918;-83
2023/06/07 08:03:05;;;;;;;;;;;;;;;33.11;nan;101952.31;4986455;28;19925;-83
2023/06/07 08:05:30;;;;;;;;;;;;;;;33.20;nan;101960.38;4990783;28;20420;-83
2023/06/07 08:07:56;;;;;;;;;;;;;;;33.24;nan;101962.03;4986866;28;19918;-85
2023/06/07 08:10:22;;;;;;;;;;;;;;;33.29;nan;101953.38;4990069;28;19924;-84
2023/06/07 08:12:47;;;;;;;;;;;;;;;33.30;nan;101952.22;4980623;28;20267;-83
2023/06/07 08:15:12;;;;;;;;;;;;;;;33.42;nan;101953.19;4990287;28;19972;-85
2023/06/07 08:17:38;;;;;;;;;;;;;;;33.53;nan;101956.91;4986687;28;19980;-84
2023/06/07 08:20:04;;;;;;;;;;;;;;;33.64;nan;101952.31;4989469;28;20401;-84
2023/06/07 08:22:30;;;;;;;;;;;;;;;33.74;nan;101950.81;4990268;28;19925;-82
2023/06/07 08:24:55;;;;;;;;;;;;;;;33.85;nan;101947.03;4989598;28;19922;-82
2023/06/07 08:27:21;;;;;;;;;;;;;;;34.03;nan;101952.00;4981054;28;19917;-86
2023/06/07 08:29:46;;;;;;;;;;;;;;;34.15;nan;101946.19;4987068;28;19914;-83
2023/06/07 08:32:11;;;;;;;;;;;;;;;34.30;nan;101955.50;4986067;28;19926;-85
2023/06/07 08:34:39;;;;;;;;;;;;;;;34.33;nan;101960.28;4977508;28;19961;-86
2023/06/07 08:37:05;;;;;;;;;;;;;;;34.30;nan;101956.28;4984474;28;19932;-85
2023/06/07 08:39:30;;;;;;;;;;;;;;;34.29;nan;101949.09;4986522;28;19933;-85
2023/06/07 08:41:56;;;;;;;;;;;;;;;34.29;nan;101954.66;4981568;28;19969;-85
2023/06/07 08:44:21;;;;;;;;;;;;;;;34.23;nan;101953.41;4988190;28;20009;-85
2023/06/07 08:46:48;;;;;;;;;;;;;;;34.21;nan;101950.22;4984659;28;20294;-85
2023/06/07 08:49:13;;;;;;;;;;;;;;;34.17;nan;101952.97;4987764;28;19933;-84
2023/06/07 08:51:41;;;;;;;;;;;;;;;34.13;nan;101943.81;4977087;28;19922;-84
2023/06/07 08:54:08;;;;;;;;;;;;;;;34.18;nan;101953.78;4985213;28;19930;-83
2023/06/07 08:56:34;;;;;;;;;;;;;;;34.28;nan;101950.28;4983762;28;19972;-83
2023/06/07 08:59:01;;;;;;;;;;;;;;;34.51;nan;101939.03;4983280;28;19922;-83
2023/06/07 09:01:29;;;;;;;;;;;;;;;34.83;nan;101948.47;4989069;28;20388;-86
2023/06/07 09:03:54;;;;;;;;;;;;;;;35.02;nan;101950.22;4986634;28;20517;-84
2023/06/07 09:06:21;;;;;;;;;;;;;;;35.15;nan;101942.34;4989672;28;19918;-86
2023/06/07 09:08:46;;;;;;;;;;;;;;;35.21;nan;101942.78;4988864;28;20366;-88
2023/06/07 09:11:12;;;;;;;;;;;;;;;35.27;nan;101944.00;4982694;28;19932;-84
2023/06/07 09:13:37;;;;;;;;;;;;;;;35.32;nan;101943.63;4986676;28;19921;-87
2023/06/07 09:16:02;;;;;;;;;;;;;;;35.35;nan;101943.69;4986376;28;19957;-82
2023/06/07 09:18:44;;;;;;;;;;;;;;;35.43;nan;101936.19;4986785;28;19922;-84
2023/06/07 09:21:26;;;;;;;;;;;;;;;35.53;nan;101929.84;4988885;28;19961;-83
2023/06/07 09:23:52;;;;;;;;;;;;;;;35.59;nan;101930.28;4986274;28;20660;-83
2023/06/07 09:26:18;;;;;;;;;;;;;;;35.73;nan;101942.28;4986475;28;19918;-84
2023/06/07 09:28:47;;;;;;;;;;;;;;;35.91;nan;101935.97;4980045;28;19924;-82
2023/06/07 09:31:13;;;;;;;;;;;;;;;36.08;nan;101924.06;4989164;28;20007;-86
2023/06/07 09:33:38;;;;;;;;;;;;;;;36.29;nan;101934.50;4987037;28;20448;-84
2023/06/07 09:36:12;;;;;;;;;;;;;;;36.44;nan;101929.75;4987975;28;19928;-83
2023/06/07 09:38:38;;;;;;;;;;;;;;;36.54;nan;101928.97;4984635;28;20381;-83
2023/06/07 09:41:04;;;;;;;;;;;;;;;36.66;nan;101925.00;4988075;28;19918;-85
2023/06/07 09:43:50;;;;;;;;;;;;;;;36.78;nan;101924.56;4986198;28;20373;-87
2023/06/07 09:46:17;;;;;;;;;;;;;;;36.89;nan;101920.59;4986438;28;19922;-83
2023/06/07 09:48:43;;;;;;;;;;;;;;;37.01;nan;101929.78;4987495;28;19925;-82
2023/06/07 09:51:09;;;;;;;;;;;;;;;37.07;nan;101928.94;4987025;28;19925;-84
2023/06/07 09:53:48;;;;;;;;;;;;;;;37.14;nan;101925.34;4982090;28;20416;-84
2023/06/07 09:56:16;;;;;;;;;;;;;;;37.25;nan;101925.31;4988009;28;20402;-83
2023/06/07 09:58:46;;;;;;;;;;;;;;;37.36;nan;101921.34;4985490;28;19965;-86
2023/06/07 10:01:11;;;;;;;;;;;;;;;37.48;nan;101929.25;4987939;28;20304;-83
2023/06/07 10:03:47;;;;;;;;;;;;;;;37.58;nan;101921.25;4989118;28;19917;-84
2023/06/07 10:06:16;;;;;;;;;;;;;;;37.67;nan;101925.19;4986044;28;20109;-86
2023/06/07 10:08:42;;;;;;;;;;;;;;;37.74;nan;101919.59;4988500;28;19925;-83
2023/06/07 10:11:09;;;;;;;;;;;;;;;37.78;nan;101919.56;4988143;28;20540;-86
2023/06/07 10:13:35;;;;;;;;;;;;;;;37.82;nan;101914.75;4984170;28;19923;-84
2023/06/07 10:16:04;;;;;;;;;;;;;;;37.91;nan;101915.13;4985441;28;20305;-84
2023/06/07 10:18:30;;;;;;;;;;;;;;;38.06;nan;101921.41;4981831;28;20008;-83
2023/06/07 10:21:01;;;;;;;;;;;;;;;38.10;nan;101906.19;4985159;28;19956;-83
2023/06/07 10:23:47;;;;;;;;;;;;;;;38.10;nan;101905.41;4988720;28;19917;-82
2023/06/07 10:26:18;;;;;;;;;;;;;;;38.13;nan;101903.78;4984161;28;19925;-86
2023/06/07 10:28:49;;;;;;;;;;;;;;;38.21;nan;101908.13;4989175;28;19918;-82
2023/06/07 10:31:15;;;;;;;;;;;;;;;38.34;nan;101910.03;4985961;28;20420;-82
2023/06/07 10:33:41;;;;;;;;;;;;;;;38.48;nan;101903.53;4990186;28;20586;-85
2023/06/07 10:36:08;;;;;;;;;;;;;;;38.51;nan;101905.50;5002550;28;19925;-84
2023/06/07 10:38:33;;;;;;;;;;;;;;;38.56;nan;101901.47;4984979;28;19956;-83
2023/06/07 10:41:01;;;;;;;;;;;;;;;38.66;nan;101901.41;4987750;28;19949;-84
2023/06/07 10:43:27;;;;;;;;;;;;;;;38.77;nan;101892.09;5005715;28;19961;-83
2023/06/07 10:46:11;;;;;;;;;;;;;;;38.86;nan;101898.00;4993458;28;20568;-83
2023/06/07 10:48:38;;;;;;;;;;;;;;;38.89;nan;101899.97;4982170;28;20020;-86
2023/06/07 10:51:03;;;;;;;;;;;;;;;38.91;nan;101891.94;4985977;28;20349;-83
2023/06/07 10:53:48;;;;;;;;;;;;;;;38.98;nan;101894.69;4989708;28;19914;-84
2023/06/07 10:56:26;;;;;;;;;;;;;;;38.97;nan;101899.50;4990522;28;19921;-82
2023/06/07 10:58:51;;;;;;;;;;;;;;;39.03;nan;101888.63;4989805;28;19918;-82
2023/06/07 11:01:24;;;;;;;;;;;;;;;39.03;nan;101888.63;4991281;28;19925;-85
2023/06/07 11:03:49;;;;;;;;;;;;;;;39.08;nan;101891.00;4991114;28;19924;-85
2023/06/07 11:06:15;;;;;;;;;;;;;;;39.16;nan;101886.91;4990999;28;19922;-85
2023/06/07 11:08:40;;;;;;;;;;;;;;;39.25;nan;101892.78;4987674;28;20040;-86
2023/06/07 11:11:25;;;;;;;;;;;;;;;39.40;nan;101889.81;4991713;28;20011;-85
2023/06/07 11:13:53;;;;;;;;;;;;;;;39.51;nan;101888.47;4991328;28;19918;-83
2023/06/07 11:16:28;;;;;;;;;;;;;;;39.67;nan;101892.69;4991864;28;20317;-83
2023/06/07 11:18:55;;;;;;;;;;;;;;;39.76;nan;101884.56;4985745;28;19932;-88
2023/06/07 11:21:20;;;;;;;;;;;;;;;39.81;nan;101886.88;4990856;28;19918;-82
2023/06/07 11:23:46;;;;;;;;;;;;;;;39.79;nan;101878.09;4989513;28;19918;-82
2023/06/07 11:26:12;;;;;;;;;;;;;;;39.80;nan;101872.06;4984988;28;19914;-82
2023/06/07 11:28:38;;;;;;;;;;;;;;;39.83;nan;101876.81;4986900;28;20266;-86
2023/06/07 11:31:08;;;;;;;;;;;;;;;39.97;nan;101880.66;4987526;28;19918;-83
2023/06/07 11:33:34;;;;;;;;;;;;;;;40.08;nan;101873.69;4989257;28;19918;-83
2023/06/07 11:36:01;;;;;;;;;;;;;;;40.12;nan;101873.63;4981840;28;19961;-86
2023/06/07 11:38:26;;;;;;;;;;;;;;;40.09;nan;101875.28;4999320;28;19922;-85
2023/06/07 11:40:52;;;;;;;;;;;;;;;40.15;nan;101873.56;4989636;28;20071;-84
2023/06/07 11:43:19;;;;;;;;;;;;;;;40.18;nan;101872.69;4984247;28;19925;-85
2023/06/07 11:45:45;;;;;;;;;;;;;;;40.20;nan;101880.69;4987328;28;19932;-83
2023/06/07 11:48:10;;;;;;;;;;;;;;;40.22;nan;101877.47;4982945;28;19933;-83
2023/06/07 11:50:36;;;;;;;;;;;;;;;40.22;nan;101864.25;4987498;28;19977;-82
2023/06/07 11:53:02;;;;;;;;;;;;;;;40.12;nan;101863.19;4984767;28;19925;-83
2023/06/07 11:55:28;;;;;;;;;;;;;;;40.16;nan;101860.31;4980413;28;19922;-84
2023/06/07 11:57:55;;;;;;;;;;;;;;;40.19;nan;101859.47;4982335;28;19929;-86
2023/06/07 12:00:23;;;;;;;;;;;;;;;40.31;nan;101863.69;4986713;28;19933;-80
2023/06/07 12:02:49;;;;;;;;;;;;;;;40.33;nan;101858.44;4982298;28;19918;-84
2023/06/07 12:05:16;;;;;;;;;;;;;;;40.41;nan;101863.53;4982434;28;19937;-83
2023/06/07 12:07:42;;;;;;;;;;;;;;;40.54;nan;101851.66;4986186;28;19933;-84
2023/06/07 12:10:10;;;;;;;;;;;;;;;40.66;nan;101848.25;4980588;28;19926;-84
2023/06/07 12:12:36;;;;;;;;;;;;;;;40.75;nan;101848.47;4980502;28;19932;-80
2023/06/07 12:15:02;;;;;;;;;;;;;;;40.82;nan;101848.38;4981915;28;19918;-83
2023/06/07 12:17:34;;;;;;;;;;;;;;;40.87;nan;101845.06;4980089;28;19945;-83
2023/06/07 12:20:09;;;;;;;;;;;;;;;40.95;nan;101840.09;4979786;28;19922;-84
2023/06/07 12:22:35;;;;;;;;;;;;;;;41.01;nan;101841.97;4978762;28;19926;-82
2023/06/07 12:25:27;;;;;;;;;;;;;;;41.12;nan;101838.13;4982433;28;19972;-86
2023/06/07 12:27:53;;;;;;;;;;;;;;;41.23;nan;101838.69;4977359;28;20032;-81
2023/06/07 12:30:21;;;;;;;;;;;;;;;41.30;nan;101832.97;4981430;28;20048;-80
2023/06/07 12:32:47;;;;;;;;;;;;;;;41.34;nan;101831.66;4983783;28;19969;-83
2023/06/07 12:35:13;;;;;;;;;;;;;;;41.31;nan;101829.72;4981477;28;20016;-82
2023/06/07 12:37:39;;;;;;;;;;;;;;;41.29;nan;101820.91;4980186;28;20021;-80
2023/06/07 12:40:05;;;;;;;;;;;;;;;41.28;nan;101829.78;4978539;28;20044;-82
2023/06/07 12:42:32;;;;;;;;;;;;;;;41.31;nan;101820.50;4982096;28;19918;-82
2023/06/07 12:44:57;;;;;;;;;;;;;;;41.22;nan;101817.44;4977086;28;19922;-82
2023/06/07 12:47:22;;;;;;;;;;;;;;;41.01;nan;101822.28;4981087;28;19926;-82
2023/06/07 12:49:48;;;;;;;;;;;;;;;40.85;nan;101816.59;4981719;28;19924;-80
2023/06/07 12:52:13;;;;;;;;;;;;;;;40.92;nan;101822.06;4978089;28;19957;-81
2023/06/07 12:54:38;;;;;;;;;;;;;;;41.09;nan;101819.31;4985772;28;19922;-80